Time;durP1;ratioP1;P1;durP2;ratioP2;P2;SDS_P1;SDS_P2;PMS_P1;PMS_P2;Temp;Humidity;BMP_temperature;BMP_pressure;BME280_temperature;BME280_humidity;BME280_pressure;Samples;Min_cycle;Max_cycle;Signal;HPM_P1;HPM_P2
2022/04/21 00:00:31;;;;;;;7.95;4.93;;;;;;;11.96;50.73;101282.97;4977767;28;20034;-89
2022/04/21 00:02:57;;;;;;;8.23;4.85;;;;;;;11.94;50.65;101284.84;4986058;28;20046;-91
2022/04/21 00:05:22;;;;;;;8.68;5.70;;;;;;;11.83;50.90;101277.28;4975352;28;20117;-94
2022/04/21 00:07:48;;;;;;;8.48;4.68;;;;;;;11.80;51.12;101265.91;4991815;28;20033;-92
2022/04/21 00:10:14;;;;;;;7.45;5.40;;;;;;;11.88;50.80;101291.22;4989477;28;20058;-92
2022/04/21 00:12:40;;;;;;;9.68;5.32;;;;;;;11.75;50.93;101269.59;4978915;28;20125;-92
2022/04/21 00:15:06;;;;;;;9.20;5.35;;;;;;;11.81;52.09;101280.91;4980161;28;20549;-92
2022/04/21 00:17:32;;;;;;;7.13;4.90;;;;;;;11.75;51.43;101284.66;4976915;28;20027;-92
2022/04/21 00:19:57;;;;;;;7.10;5.50;;;;;;;11.74;50.74;101281.09;4978812;28;20556;-94
2022/04/21 00:25:08;;;;;;;6.45;5.38;;;;;;;11.74;51.14;101277.59;4987103;28;20135;-92
2022/04/21 00:27:38;;;;;;;8.13;5.13;;;;;;;11.71;51.09;101273.28;4989654;28;20035;-93
2022/04/21 00:30:06;;;;;;;6.65;5.28;;;;;;;11.70;51.37;101274.22;4979831;28;20084;-91
2022/04/21 00:32:33;;;;;;;7.43;5.10;;;;;;;11.67;52.48;101276.97;4971158;28;20037;-91
2022/04/21 00:34:58;;;;;;;11.23;5.35;;;;;;;11.64;52.49;101273.56;4991653;28;20481;-91
2022/04/21 00:37:24;;;;;;;10.18;5.00;;;;;;;11.64;52.21;101265.63;4981020;28;20133;-92
2022/04/21 00:39:50;;;;;;;9.95;5.15;;;;;;;11.66;51.82;101275.25;4981424;28;20064;-93
2022/04/21 00:42:15;;;;;;;10.32;6.05;;;;;;;11.63;52.03;101280.66;4977511;28;20520;-93
2022/04/21 00:44:41;;;;;;;8.07;4.85;;;;;;;11.58;52.15;101266.72;4978642;28;20026;-92
2022/04/21 00:47:07;;;;;;;9.43;5.45;;;;;;;11.54;51.97;101272.19;4993905;28;20708;-91
2022/04/21 00:49:33;;;;;;;6.13;4.70;;;;;;;11.58;51.67;101265.88;4990712;28;20042;-91
2022/04/21 00:52:01;;;;;;;8.02;5.22;;;;;;;11.58;51.55;101264.06;4992041;28;20045;-92
2022/04/21 00:54:30;;;;;;;7.30;5.32;;;;;;;11.54;51.60;101256.31;4971494;28;20026;-91
2022/04/21 00:56:55;;;;;;;8.20;5.65;;;;;;;11.45;51.96;101255.72;4975307;28;20469;-92
2022/04/21 00:59:21;;;;;;;7.28;5.97;;;;;;;11.40;53.44;101259.47;4974398;28;20038;-93
2022/04/21 01:04:31;;;;;;;8.05;5.13;;;;;;;11.36;52.83;101257.84;4991389;28;20101;-89
2022/04/21 01:06:57;;;;;;;6.75;5.35;;;;;;;11.36;51.81;101276.38;4976357;28;20500;-91
2022/04/21 01:09:22;;;;;;;5.75;4.95;;;;;;;11.26;51.66;101259.09;4978649;28;20030;-93
2022/04/21 01:11:49;;;;;;;9.35;5.88;;;;;;;11.15;53.04;101268.31;4975190;28;20033;-92
2022/04/21 01:14:15;;;;;;;7.20;5.03;;;;;;;11.15;52.85;101270.94;4974307;28;20050;-93
2022/04/21 01:16:41;;;;;;;6.47;5.28;;;;;;;11.11;52.92;101265.81;4986613;28;20033;-89
2022/04/21 01:19:06;;;;;;;8.32;5.22;;;;;;;11.09;52.73;101260.56;4972643;28;20033;-90
2022/04/21 01:21:31;;;;;;;7.25;5.68;;;;;;;11.08;53.25;101261.47;4993871;28;20393;-92
2022/04/21 01:23:57;;;;;;;7.43;5.15;;;;;;;10.99;52.89;101253.88;4990184;28;20486;-93
2022/04/21 01:26:27;;;;;;;7.45;5.88;;;;;;;10.99;53.28;101256.53;4976978;28;20081;-92
2022/04/21 01:28:54;;;;;;;11.73;6.20;;;;;;;10.98;53.42;101260.94;4991216;28;20041;-92
2022/04/21 01:31:23;;;;;;;8.48;5.45;;;;;;;10.97;54.02;101250.44;4978324;28;20073;-91
2022/04/21 01:33:50;;;;;;;10.98;5.80;;;;;;;10.97;52.98;101261.00;4972567;28;20057;-91
2022/04/21 01:36:15;;;;;;;8.10;5.97;;;;;;;10.87;53.24;101249.88;4992908;28;20528;-91
2022/04/21 01:41:25;;;;;;;7.30;5.50;;;;;;;10.82;53.87;101243.00;4988622;28;20579;-92
2022/04/21 01:43:50;;;;;;;8.18;5.50;;;;;;;10.79;54.12;101245.78;4973889;28;20045;-89
2022/04/21 01:46:15;;;;;;;8.52;5.65;;;;;;;10.78;54.44;101244.06;4996498;28;20037;-92
2022/04/21 01:48:41;;;;;;;7.07;5.43;;;;;;;10.69;53.96;101234.66;4987383;28;20104;-90
2022/04/21 01:51:07;;;;;;;9.52;6.28;;;;;;;10.70;56.55;101245.16;4994424;28;20556;-93
2022/04/21 01:53:32;;;;;;;9.18;6.10;;;;;;;10.65;54.39;101248.91;4970010;28;20076;-93
2022/04/21 01:55:57;;;;;;;8.27;6.05;;;;;;;10.62;56.68;101246.34;4990286;28;20045;-92
2022/04/21 01:58:23;;;;;;;8.40;5.70;;;;;;;10.59;55.44;101251.75;4972191;28;20033;-92
2022/04/21 02:00:48;;;;;;;8.52;5.68;;;;;;;10.45;55.28;101250.44;4977546;28;20061;-92
2022/04/21 02:03:13;;;;;;;7.50;5.50;;;;;;;10.43;54.74;101249.59;4976021;28;20041;-92
2022/04/21 02:05:39;;;;;;;9.05;5.70;;;;;;;10.38;55.67;101250.66;4972975;28;20038;-91
2022/04/21 02:08:04;;;;;;;9.13;6.20;;;;;;;10.39;56.25;101255.03;4988543;28;20030;-91
2022/04/21 02:10:30;;;;;;;9.23;5.55;;;;;;;10.34;55.56;101252.53;4992554;28;20034;-93
2022/04/21 02:12:56;;;;;;;10.18;6.05;;;;;;;10.30;58.01;101250.06;4976831;28;20022;-92
2022/04/21 02:15:23;;;;;;;10.48;6.00;;;;;;;10.32;55.93;101256.16;4989186;28;20136;-92
2022/04/21 02:17:48;;;;;;;6.72;5.45;;;;;;;10.27;55.86;101248.38;4990826;28;20030;-90
2022/04/21 02:20:15;;;;;;;6.25;5.60;;;;;;;10.29;55.47;101259.75;4992554;28;20437;-92
2022/04/21 02:22:41;;;;;;;6.97;5.45;;;;;;;10.26;55.63;101251.06;4973481;28;20026;-93
2022/04/21 02:25:09;;;;;;;8.30;6.00;;;;;;;10.23;55.34;101250.22;4989383;28;20426;-91
2022/04/21 02:27:36;;;;;;;7.05;5.65;;;;;;;10.16;55.47;101253.09;4989275;28;20042;-92
2022/04/21 02:30:06;;;;;;;10.00;5.90;;;;;;;10.12;55.68;101252.34;4991799;28;20026;-93
2022/04/21 02:32:31;;;;;;;8.30;5.40;;;;;;;10.10;54.85;101248.03;4991025;28;20038;-92
2022/04/21 02:34:57;;;;;;;6.78;5.55;;;;;;;10.12;54.91;101247.06;4974950;28;20038;-92
2022/04/21 02:37:23;;;;;;;7.57;5.65;;;;;;;10.12;55.22;101251.50;4974253;28;20030;-92
2022/04/21 02:39:49;;;;;;;7.90;5.40;;;;;;;10.11;55.38;101257.66;4971788;28;20030;-93
2022/04/21 02:42:15;;;;;;;7.72;5.57;;;;;;;10.06;55.41;101251.66;4991962;28;20517;-94
2022/04/21 02:44:41;;;;;;;10.60;5.70;;;;;;;10.01;55.15;101254.44;4991791;28;20029;-90
2022/04/21 02:47:07;;;;;;;7.18;5.38;;;;;;;9.95;55.00;101244.94;4989238;28;20067;-91
2022/04/21 02:49:35;;;;;;;7.50;5.60;;;;;;;9.85;55.61;101234.72;4975922;28;20026;-89
2022/04/21 02:52:01;;;;;;;7.50;5.57;;;;;;;9.83;56.39;101241.81;4972810;28;20050;-93
2022/04/21 02:57:22;;;;;;;8.02;4.97;;;;;;;9.76;55.96;101249.06;4988369;28;20038;-92
2022/04/21 02:59:50;;;;;;;8.07;5.43;;;;;;;9.82;56.41;101253.28;4973368;28;20610;-91
2022/04/21 03:02:15;;;;;;;6.18;5.05;;;;;;;9.77;56.15;101242.88;4986159;28;20030;-89
2022/04/21 03:04:40;;;;;;;7.40;5.10;;;;;;;9.70;56.35;101244.84;4989544;28;20077;-90
2022/04/21 03:07:06;;;;;;;6.32;5.28;;;;;;;9.71;57.70;101248.34;4972519;28;20109;-94
2022/04/21 03:09:32;;;;;;;8.77;5.13;;;;;;;9.69;56.71;101243.09;4973328;28;20102;-93
2022/04/21 03:12:04;;;;;;;8.75;5.68;;;;;;;9.62;56.65;101233.66;4975956;28;20022;-90
2022/04/21 03:14:29;;;;;;;;;;;;;;;9.80;56.07;101244.56;4978451;28;20021;-94
2022/04/21 03:16:55;;;;;;;8.25;5.43;;;;;;;9.65;56.60;101230.91;4994491;28;20413;-92
2022/04/21 03:19:21;;;;;;;8.38;5.53;;;;;;;9.59;56.35;101224.94;4973047;28;20034;-92
2022/04/21 03:24:33;;;;;;;8.07;5.30;;;;;;;9.48;57.46;101222.63;4989905;28;20100;-92
2022/04/21 03:26:59;;;;;;;7.53;5.15;;;;;;;9.52;57.30;101240.09;4971930;28;20097;-94
2022/04/21 03:29:24;;;;;;;10.80;5.85;;;;;;;9.51;58.11;101229.56;4991565;28;20083;-91
2022/04/21 03:31:50;;;;;;;8.13;5.50;;;;;;;9.45;57.61;101236.75;4996160;28;20464;-92
2022/04/21 03:34:19;;;;;;;9.82;5.55;;;;;;;9.43;58.60;101246.50;4972336;28;20077;-92
2022/04/21 03:36:49;;;;;;;8.68;6.18;;;;;;;9.42;58.96;101231.59;4974758;28;20068;-91
2022/04/21 03:39:17;;;;;;;9.48;5.53;;;;;;;9.45;57.55;101238.53;4975984;28;20489;-91
2022/04/21 03:41:42;;;;;;;8.50;6.07;;;;;;;9.42;57.76;101239.53;4973683;28;20054;-92
2022/04/21 03:44:11;;;;;;;9.45;6.10;;;;;;;9.37;57.61;101236.16;4991426;28;20601;-93
2022/04/21 03:46:38;;;;;;;6.55;5.65;;;;;;;9.40;57.19;101241.31;4989509;28;20485;-90
2022/04/21 03:49:04;;;;;;;8.77;6.07;;;;;;;9.34;58.54;101240.66;4992372;28;20601;-92
2022/04/21 03:51:31;;;;;;;8.90;6.60;;;;;;;9.34;57.30;101240.66;4990905;28;20041;-91
2022/04/21 03:53:57;;;;;;;7.43;5.82;;;;;;;9.30;56.98;101246.91;4989196;28;20038;-90
2022/04/21 03:56:22;;;;;;;9.27;5.97;;;;;;;9.26;57.54;101248.75;4973658;28;20126;-92
2022/04/21 03:58:48;;;;;;;8.98;6.35;;;;;;;9.28;57.53;101249.59;4974954;28;20057;-90
2022/04/21 04:01:13;;;;;;;8.13;6.15;;;;;;;9.25;57.69;101251.47;4972380;28;20018;-93
2022/04/21 04:03:38;;;;;;;11.15;5.72;;;;;;;9.16;60.08;101247.28;4973855;28;20030;-93
2022/04/21 04:10:51;;;;;;;7.80;6.32;;;;;;;9.17;57.50;101252.53;4970842;28;20022;-92
2022/04/21 04:11:33;;;;;;;7.28;5.97;;;;;;;9.10;57.83;101253.63;4990240;28;20401;-93
2022/04/21 04:13:58;;;;;;;8.70;6.45;;;;;;;9.08;57.40;101252.78;4992901;28;20031;-92
2022/04/21 04:16:24;;;;;;;6.88;6.15;;;;;;;9.07;57.37;101250.19;4974655;28;20022;-93
2022/04/21 04:18:49;;;;;;;9.68;6.25;;;;;;;9.01;57.58;101243.31;4972143;28;20034;-92
2022/04/21 04:21:14;;;;;;;8.25;6.10;;;;;;;9.01;58.33;101251.22;4991987;28;20039;-92
2022/04/21 04:23:40;;;;;;;8.50;6.28;;;;;;;9.02;57.64;101241.53;4990249;28;20477;-93
2022/04/21 04:26:05;;;;;;;7.32;6.15;;;;;;;9.00;57.73;101243.34;4977104;28;20034;-93
2022/04/21 04:28:31;;;;;;;7.53;5.72;;;;;;;8.96;58.10;101233.81;4975214;28;20474;-90
2022/04/21 04:30:57;;;;;;;8.20;5.85;;;;;;;8.97;57.93;101246.06;4977048;28;20034;-92
2022/04/21 04:33:22;;;;;;;7.63;5.70;;;;;;;8.92;58.89;101244.41;4992709;28;20069;-93
2022/04/21 04:35:47;;;;;;;6.68;5.72;;;;;;;8.89;57.94;101246.25;4981097;28;20565;-90
2022/04/21 04:38:14;;;;;;;9.90;6.05;;;;;;;8.87;60.00;101246.31;4997250;28;20541;-92
2022/04/21 04:40:39;;;;;;;11.65;6.38;;;;;;;8.89;58.01;101248.91;4980119;28;20026;-91
2022/04/21 04:43:05;;;;;;;9.95;5.63;;;;;;;8.89;58.10;101256.81;4976921;28;20508;-90
2022/04/21 04:48:28;;;;;;;8.82;5.70;;;;;;;8.87;58.18;101253.38;4978034;28;20093;-92
2022/04/21 04:50:53;;;;;;;8.45;6.05;;;;;;;8.85;58.92;101261.28;4998113;28;20137;-90
2022/04/21 04:53:19;;;;;;;10.10;5.93;;;;;;;8.84;58.18;101258.72;4977653;28;20045;-94
2022/04/21 04:55:46;;;;;;;8.90;6.10;;;;;;;8.88;59.23;101257.72;4976721;28;20052;-88
2022/04/21 04:58:11;;;;;;;9.20;6.15;;;;;;;8.89;58.91;101264.72;4994656;28;20113;-91
2022/04/21 05:00:36;;;;;;;7.82;5.90;;;;;;;8.91;58.97;101265.56;4978426;28;20157;-92
2022/04/21 05:03:05;;;;;;;9.25;6.13;;;;;;;8.91;58.92;101266.44;4978714;28;20034;-91
2022/04/21 05:05:30;;;;;;;11.50;6.55;;;;;;;8.88;58.36;101255.94;4972453;28;20042;-92
2022/04/21 05:07:55;;;;;;;10.65;6.25;;;;;;;8.92;59.17;101256.75;4975292;28;20056;-92
2022/04/21 05:10:23;;;;;;;9.25;6.13;;;;;;;8.96;61.24;101263.66;4993797;28;20034;-91
2022/04/21 05:12:48;;;;;;;9.40;6.57;;;;;;;8.93;58.47;101251.41;4969675;28;20631;-91
2022/04/21 05:15:14;;;;;;;14.07;6.40;;;;;;;9.04;60.41;101255.53;4990324;28;20033;-93
2022/04/21 05:17:39;;;;;;;9.05;6.50;;;;;;;9.04;58.97;101261.66;4989627;28;20026;-92
2022/04/21 05:20:05;;;;;;;10.65;6.50;;;;;;;9.07;58.04;101258.97;4976182;28;20030;-92
2022/04/21 05:22:37;;;;;;;9.75;6.60;;;;;;;9.15;60.69;101251.72;4976344;28;20037;-93
2022/04/21 05:25:07;;;;;;;7.95;6.10;;;;;;;9.14;58.06;101244.72;4973619;28;20046;-92
2022/04/21 05:27:33;;;;;;;10.50;6.60;;;;;;;9.17;58.08;101246.38;4992701;28;20026;-92
2022/04/21 05:32:45;;;;;;;9.95;6.47;;;;;;;9.34;58.04;101248.56;4991590;28;20077;-89
2022/04/21 05:35:12;;;;;;;7.75;6.20;;;;;;;9.37;57.29;101254.63;4973616;28;20030;-90
2022/04/21 05:37:37;;;;;;;11.63;6.63;;;;;;;9.42;57.91;101246.56;4972294;28;20041;-92
2022/04/21 05:40:06;;;;;;;9.27;7.03;;;;;;;9.44;61.65;101245.59;4996144;28;20084;-93
2022/04/21 05:42:35;;;;;;;8.95;6.50;;;;;;;9.40;58.83;101240.44;4974345;28;20557;-89
2022/04/21 05:45:02;;;;;;;12.80;6.38;;;;;;;9.56;57.91;101256.69;4979483;28;20041;-90
2022/04/21 05:47:28;;;;;;;10.63;6.45;;;;;;;9.60;57.65;101253.06;4968288;28;20574;-91
2022/04/21 05:49:54;;;;;;;9.50;6.40;;;;;;;9.64;57.34;101252.94;4997319;28;20041;-92
2022/04/21 05:52:23;;;;;;;9.98;6.93;;;;;;;9.67;57.66;101252.84;4995153;28;20053;-94
2022/04/21 05:54:48;;;;;;;7.57;6.15;;;;;;;9.68;57.24;101259.84;4975736;28;20045;-94
2022/04/21 05:57:14;;;;;;;12.25;7.03;;;;;;;9.69;57.06;101258.06;4973835;28;20061;-93
2022/04/21 05:59:39;;;;;;;8.77;6.90;;;;;;;9.74;57.45;101255.28;4993523;28;20026;-94
2022/04/21 06:02:07;;;;;;;9.95;6.78;;;;;;;9.77;57.10;101249.94;4973029;28;20379;-90
2022/04/21 06:04:32;;;;;;;9.57;7.05;;;;;;;9.79;56.23;101249.00;4993476;28;20058;-93
2022/04/21 06:06:58;;;;;;;12.35;6.75;;;;;;;9.86;56.25;101254.94;4993338;28;20126;-92
2022/04/21 06:09:23;;;;;;;11.70;7.03;;;;;;;9.91;56.22;101261.78;4993844;28;20409;-92
2022/04/21 06:11:49;;;;;;;8.85;6.90;;;;;;;9.94;56.10;101250.28;4992475;28;20053;-92
2022/04/21 06:14:15;;;;;;;14.40;7.50;;;;;;;9.97;55.99;101252.81;4973681;28;20088;-91
2022/04/21 06:16:40;;;;;;;11.27;7.13;;;;;;;10.03;56.60;101246.50;4995155;28;20354;-93
2022/04/21 06:19:06;;;;;;;9.77;6.63;;;;;;;10.08;56.41;101250.72;4989470;28;20029;-94
2022/04/21 06:21:31;;;;;;;10.85;7.07;;;;;;;10.10;55.65;101243.59;4992646;28;20034;-91
2022/04/21 06:23:56;;;;;;;11.05;6.70;;;;;;;10.18;55.48;101244.22;4986477;28;20030;-90
2022/04/21 06:26:25;;;;;;;10.50;6.85;;;;;;;10.36;54.99;101249.88;4989571;28;20026;-90
2022/04/21 06:28:51;;;;;;;9.38;6.38;;;;;;;10.45;55.44;101246.94;4986610;28;20034;-93
2022/04/21 06:31:16;;;;;;;8.43;7.03;;;;;;;10.49;54.59;101240.59;4972062;28;20084;-91
2022/04/21 06:33:41;;;;;;;9.05;6.47;;;;;;;10.65;54.42;101244.47;4972205;28;20026;-90
2022/04/21 06:36:07;;;;;;;10.40;6.78;;;;;;;10.77;54.03;101250.25;4994997;28;20034;-90
2022/04/21 06:38:33;;;;;;;10.75;6.40;;;;;;;10.87;53.86;101238.44;4975657;28;20497;-91
2022/04/21 06:40:58;;;;;;;12.20;6.85;;;;;;;11.02;53.33;101240.53;4968615;28;20032;-90
2022/04/21 06:48:51;;;;;;;10.85;6.32;;;;;;;11.45;51.84;101234.53;4985710;28;20525;-92
2022/04/21 06:51:18;;;;;;;12.20;7.43;;;;;;;11.61;52.88;101237.50;4965523;28;20050;-89
2022/04/21 06:53:44;;;;;;;10.30;6.35;;;;;;;11.69;52.10;101226.59;4990217;28;20046;-91
2022/04/21 06:56:11;;;;;;;16.40;7.30;;;;;;;11.90;52.18;101235.53;4974985;28;20034;-92
2022/04/21 06:58:36;;;;;;;7.97;6.00;;;;;;;12.03;52.17;101228.81;4971530;28;20058;-91
2022/04/21 07:01:01;;;;;;;10.10;6.45;;;;;;;12.15;50.81;101228.31;4987727;28;20297;-91
2022/04/21 07:03:27;;;;;;;8.43;6.47;;;;;;;12.29;50.89;101229.53;4991894;28;20061;-88
2022/04/21 07:05:55;;;;;;;10.02;5.90;;;;;;;12.40;50.72;101232.59;4988337;28;20120;-91
2022/04/21 07:08:21;;;;;;;13.77;6.47;;;;;;;12.55;51.29;101234.63;4974670;28;20542;-90
2022/04/21 07:10:46;;;;;;;7.40;6.32;;;;;;;12.68;51.09;101230.53;4971791;28;20121;-90
2022/04/21 07:13:12;;;;;;;9.70;6.53;;;;;;;12.79;50.20;101226.56;4991482;28;20061;-93
2022/04/21 07:15:38;;;;;;;8.82;6.40;;;;;;;12.86;50.41;101228.88;4983539;28;20025;-91
2022/04/21 07:18:03;;;;;;;9.80;7.03;;;;;;;12.91;50.01;101229.53;4969245;28;20030;-91
2022/04/21 07:20:29;;;;;;;7.75;6.82;;;;;;;13.06;51.29;101230.66;4991029;28;20557;-93
2022/04/21 07:22:55;;;;;;;11.27;6.97;;;;;;;13.10;49.31;101232.22;4991152;28;20096;-91
2022/04/21 07:25:20;;;;;;;9.48;6.95;;;;;;;13.21;51.27;101229.97;4965167;28;20481;-89
2022/04/21 07:27:45;;;;;;;12.13;7.38;;;;;;;13.50;49.56;101241.09;4989132;28;20060;-90
2022/04/21 07:30:11;;;;;;;9.52;7.07;;;;;;;13.65;48.96;101239.53;4969633;28;20668;-91
2022/04/21 07:32:36;;;;;;;7.88;6.72;;;;;;;13.89;48.57;101243.69;4990250;28;20054;-89
2022/04/21 07:35:02;;;;;;;10.57;5.93;;;;;;;14.14;47.82;101250.50;4984490;28;20038;-90
2022/04/21 07:37:28;;;;;;;9.63;6.40;;;;;;;14.33;46.85;101253.13;4973401;28;20053;-90
2022/04/21 07:39:53;;;;;;;10.73;6.20;;;;;;;14.55;47.08;101243.19;4971388;28;20030;-90
2022/04/21 07:42:18;;;;;;;9.80;5.75;;;;;;;14.80;47.23;101245.44;4984435;28;20122;-90
2022/04/21 07:44:44;;;;;;;7.43;5.82;;;;;;;15.24;44.19;101252.91;4965217;28;20458;-89
2022/04/21 07:47:09;;;;;;;8.90;6.00;;;;;;;15.55;43.86;101230.81;4979810;28;20034;-90
2022/04/21 07:49:48;;;;;;;6.45;5.72;;;;;;;15.92;42.56;101243.00;4988742;28;20393;-88
2022/04/21 07:55:17;;;;;;;7.40;5.40;;;;;;;16.66;41.33;101238.75;4989037;28;20049;-89
2022/04/21 07:57:43;;;;;;;9.32;5.97;;;;;;;16.95;41.12;101240.56;4972126;28;20029;-89
2022/04/21 08:00:10;;;;;;;10.38;5.63;;;;;;;17.21;40.12;101227.44;4973755;28;20069;-91
2022/04/21 08:02:40;;;;;;;8.90;5.53;;;;;;;17.57;38.13;101235.81;4986493;28;20557;-92
2022/04/21 08:05:06;;;;;;;9.63;5.05;;;;;;;17.86;37.96;101235.84;4990554;28;20061;-92
2022/04/21 08:07:32;;;;;;;7.25;5.22;;;;;;;18.05;38.62;101238.19;4986996;28;20109;-89
2022/04/21 08:09:58;;;;;;;7.10;5.50;;;;;;;18.33;38.28;101240.75;4974181;28;20561;-92
2022/04/21 08:12:23;;;;;;;7.00;5.50;;;;;;;18.61;37.13;101241.59;4972479;28;20026;-90
2022/04/21 08:14:48;;;;;;;8.82;5.25;;;;;;;18.84;37.10;101243.59;4978581;28;20038;-93
2022/04/21 08:17:14;;;;;;;6.00;5.30;;;;;;;19.03;36.02;101228.94;4963250;28;20470;-92
2022/04/21 08:19:39;;;;;;;8.02;5.22;;;;;;;18.86;35.96;101238.97;4995050;28;20034;-92
2022/04/21 08:22:06;;;;;;;8.30;4.78;;;;;;;19.19;34.70;101240.28;4992117;28;20036;-92
2022/04/21 08:32:46;;;;;;;6.25;5.35;;;;;;;20.22;34.57;101231.09;4992025;28;20436;-92
2022/04/21 08:35:13;;;;;;;7.80;5.03;;;;;;;20.49;33.92;101246.13;4995146;28;20507;-92
2022/04/21 08:37:45;;;;;;;6.97;6.13;;;;;;;20.64;33.84;101244.97;4972512;28;20440;-92
2022/04/21 08:40:11;;;;;;;5.70;5.10;;;;;;;20.86;33.30;101250.41;4975420;28;20532;-92
2022/04/21 08:42:41;;;;;;;7.03;5.35;;;;;;;21.11;33.51;101243.13;4974686;28;20117;-91
2022/04/21 08:45:08;;;;;;;8.23;5.07;;;;;;;21.50;32.43;101244.56;4992501;28;20048;-92
2022/04/21 08:47:34;;;;;;;7.97;4.95;;;;;;;21.91;32.68;101237.66;4974546;28;20026;-91
2022/04/21 08:50:12;;;;;;;5.25;4.65;;;;;;;22.32;32.35;101225.34;4968253;28;20057;-91
2022/04/21 08:52:40;;;;;;;5.72;4.80;;;;;;;22.53;31.36;101234.34;4980644;28;20054;-94
2022/04/21 08:55:06;;;;;;;9.00;4.72;;;;;;;22.76;30.91;101223.44;4980494;28;20043;-92
2022/04/21 08:57:32;;;;;;;7.07;3.95;;;;;;;23.08;28.31;101209.88;4985660;28;20034;-92
2022/04/21 08:59:58;;;;;;;7.68;5.15;;;;;;;23.42;30.65;101224.84;4977179;28;20101;-91
2022/04/21 09:02:39;;;;;;;5.55;4.20;;;;;;;23.90;29.89;101224.19;4981633;28;20043;-90
2022/04/21 09:05:05;;;;;;;5.33;3.53;;;;;;;24.20;27.80;101222.38;4978154;28;20039;-93
2022/04/21 09:07:32;;;;;;;5.00;3.72;;;;;;;24.63;26.49;101213.88;4984902;28;20026;-94
2022/04/21 09:10:06;;;;;;;4.93;4.28;;;;;;;24.60;28.17;101219.56;4978063;28;20022;-95
2022/04/21 09:12:33;;;;;;;5.65;3.95;;;;;;;24.43;26.08;101221.16;4996993;28;20039;-94
2022/04/21 09:15:06;;;;;;;5.93;4.45;;;;;;;24.63;26.77;101227.41;4978445;28;20019;-94
2022/04/21 09:17:37;;;;;;;4.40;3.50;;;;;;;25.13;26.89;101220.94;4978620;28;20034;-94
2022/04/21 09:20:05;;;;;;;6.78;4.47;;;;;;;25.67;25.46;101217.44;4977340;28;20325;-92
2022/04/21 09:22:32;;;;;;;4.82;3.92;;;;;;;25.50;25.25;101212.81;4974942;28;20034;-92
2022/04/21 09:24:59;;;;;;;5.90;4.55;;;;;;;25.13;25.57;101213.69;4975524;28;20018;-93
2022/04/21 09:27:36;;;;;;;4.28;3.88;;;;;;;25.17;25.40;101209.66;4979598;28;20038;-92
2022/04/21 09:30:03;;;;;;;7.85;3.65;;;;;;;25.22;25.63;101209.22;4976705;28;20050;-93
2022/04/21 09:32:28;;;;;;;5.75;3.95;;;;;;;25.16;25.05;101207.13;4975544;28;20045;-92
2022/04/21 09:34:53;;;;;;;6.88;4.35;;;;;;;25.30;24.65;101197.66;4982083;28;20030;-95
2022/04/21 09:37:20;;;;;;;7.75;4.35;;;;;;;25.48;24.72;101211.28;4984840;28;20081;-94
2022/04/21 09:39:52;;;;;;;8.20;4.53;;;;;;;25.55;25.19;101201.53;4977176;28;20552;-95
2022/04/21 09:42:28;;;;;;;4.45;3.67;;;;;;;25.83;25.59;101205.97;4984298;28;20030;-96
2022/04/21 09:47:51;;;;;;;5.47;3.00;;;;;;;25.43;24.72;101209.00;4990330;28;20163;-91
2022/04/21 09:50:17;;;;;;;3.58;3.28;;;;;;;25.77;23.18;101192.19;4999816;28;20026;-92
2022/04/21 09:52:51;;;;;;;3.88;3.22;;;;;;;26.15;23.95;101208.19;4978709;28;20043;-92
2022/04/21 09:55:20;;;;;;;4.28;2.75;;;;;;;25.33;23.31;101198.22;4981812;28;20038;-95
2022/04/21 09:57:45;;;;;;;4.55;3.67;;;;;;;25.22;22.73;101192.97;4971292;28;20191;-92
2022/04/21 10:00:11;;;;;;;4.60;3.63;;;;;;;25.17;22.90;101198.84;4972467;28;20445;-95
2022/04/21 10:02:37;;;;;;;3.88;3.33;;;;;;;25.34;24.42;101191.81;4982839;28;20018;-94
2022/04/21 10:05:04;;;;;;;3.58;2.95;;;;;;;25.57;24.16;101199.53;4980963;28;20503;-93
2022/04/21 10:07:30;;;;;;;4.15;2.95;;;;;;;25.39;22.50;101183.25;4977956;28;20557;-91
2022/04/21 10:09:56;;;;;;;4.20;2.72;;;;;;;25.69;24.27;101201.03;4979289;28;20098;-93
2022/04/21 10:12:22;;;;;;;5.10;2.60;;;;;;;25.73;23.04;101177.22;4966806;28;20027;-92
2022/04/21 10:14:47;;;;;;;3.28;2.50;;;;;;;25.65;22.63;101169.88;4977627;28;20437;-95
2022/04/21 10:17:13;;;;;;;3.65;2.33;;;;;;;25.69;22.25;101169.41;4975371;28;20072;-92
2022/04/21 10:19:39;;;;;;;3.95;2.35;;;;;;;25.79;20.98;101171.25;4979626;28;20109;-92
2022/04/21 10:22:13;;;;;;;3.78;2.15;;;;;;;25.50;21.63;101168.66;4977489;28;20045;-94
2022/04/21 10:24:39;;;;;;;3.63;2.00;;;;;;;25.42;20.37;101162.13;4981977;28;20481;-93
2022/04/21 10:27:06;;;;;;;2.70;2.10;;;;;;;24.75;22.29;101159.63;4977874;28;20030;-92
2022/04/21 10:29:31;;;;;;;3.15;2.38;;;;;;;24.35;21.35;101168.78;4973045;28;20101;-92
2022/04/21 10:31:59;;;;;;;2.08;1.80;;;;;;;24.64;22.35;101163.38;4975333;28;20037;-94
2022/04/21 10:34:40;;;;;;;6.03;2.10;;;;;;;24.77;20.12;101142.28;4972713;28;20035;-91
2022/04/21 10:37:19;;;;;;;2.47;1.95;;;;;;;24.50;22.57;101164.66;4977278;28;20026;-92
2022/04/21 10:40:04;;;;;;;4.88;2.13;;;;;;;24.78;21.43;101156.66;4981682;28;20037;-92
2022/04/21 10:42:30;;;;;;;3.88;2.08;;;;;;;24.67;23.96;101152.28;4977713;28;20034;-93
2022/04/21 10:44:55;;;;;;;3.60;2.22;;;;;;;24.75;21.72;101149.66;4974909;28;21832;-93
2022/04/21 10:47:38;;;;;;;2.50;2.10;;;;;;;25.15;22.58;101148.59;4978085;28;20035;-92
2022/04/21 10:50:19;;;;;;;3.22;2.28;;;;;;;25.35;22.29;101158.31;4977787;28;20485;-91
2022/04/21 10:58:37;;;;;;;2.40;2.20;;;;;;;25.51;21.13;101144.16;4994077;28;20552;-93
2022/04/21 11:01:19;;;;;;;8.43;2.42;;;;;;;25.44;22.53;101146.59;4976115;28;20562;-92
2022/04/21 11:04:03;;;;;;;7.05;2.20;;;;;;;24.77;20.53;101142.28;4987410;28;20052;-92
2022/04/21 11:06:47;;;;;;;2.70;2.10;;;;;;;25.18;22.84;101126.63;4967295;28;20552;-90
2022/04/21 11:09:40;;;;;;;3.80;2.53;;;;;;;25.37;21.14;101144.66;4985653;28;20121;-91
2022/04/21 11:12:07;;;;;;;2.38;2.00;;;;;;;25.48;21.32;101133.59;4964331;28;20061;-93
2022/04/21 11:14:36;;;;;;;4.82;2.60;;;;;;;25.39;20.21;101127.25;4966626;28;20042;-92
2022/04/21 11:17:03;;;;;;;6.78;2.63;;;;;;;25.41;20.43;101125.25;4968189;28;20026;-94
2022/04/21 11:19:28;;;;;;;4.72;2.40;;;;;;;25.57;19.57;101134.56;4984935;28;20028;-96
2022/04/21 11:21:53;;;;;;;4.03;2.23;;;;;;;25.56;19.61;101117.47;4973487;28;20042;-93
2022/04/21 11:24:19;;;;;;;5.50;2.40;;;;;;;25.28;20.50;101115.78;4992343;28;20391;-93
2022/04/21 11:26:44;;;;;;;3.45;2.00;;;;;;;25.34;20.02;101121.44;4986713;28;20493;-92
2022/04/21 11:29:10;;;;;;;3.58;1.83;;;;;;;25.55;20.18;101104.06;4968872;28;20362;-95
2022/04/21 11:31:35;;;;;;;6.65;1.92;;;;;;;25.79;19.46;101117.06;4986561;28;20045;-93
2022/04/21 11:34:02;;;;;;;2.97;2.00;;;;;;;25.70;17.70;101095.28;4983497;28;20135;-92
2022/04/21 11:36:41;;;;;;;4.95;1.92;;;;;;;25.86;19.82;101104.59;4986058;28;20355;-94
2022/04/21 11:39:13;;;;;;;3.13;2.20;;;;;;;25.84;20.70;101093.91;4972537;28;20029;-93
2022/04/21 11:41:44;;;;;;;2.85;2.65;;;;;;;26.24;20.19;101083.56;4971559;28;20042;-93
2022/04/21 11:44:10;;;;;;;2.92;2.50;;;;;;;26.49;20.68;101074.66;4983524;28;20018;-93
2022/04/21 11:46:39;;;;;;;4.00;2.50;;;;;;;25.90;19.92;101087.03;4968054;28;20064;-93
2022/04/21 11:49:04;;;;;;;5.18;2.88;;;;;;;25.78;19.26;101072.00;4985097;28;20046;-95
2022/04/21 11:51:30;;;;;;;5.63;2.70;;;;;;;25.64;19.11;101086.91;4966400;28;20038;-92
2022/04/21 11:54:03;;;;;;;5.40;2.60;;;;;;;25.48;19.73;101093.00;4969954;28;20584;-93
2022/04/21 11:56:28;;;;;;;4.95;2.40;;;;;;;25.57;19.62;101091.22;4976755;28;20569;-93
2022/04/21 11:58:54;;;;;;;4.38;2.50;;;;;;;25.88;18.45;101068.22;4971910;28;20034;-92
2022/04/21 12:06:55;;;;;;;2.50;2.28;;;;;;;25.32;20.19;101085.56;4967346;28;20053;-92
2022/04/21 12:09:35;;;;;;;4.95;2.50;;;;;;;24.98;21.10;101084.41;4964920;28;20173;-95
2022/04/21 12:12:02;;;;;;;3.58;2.47;;;;;;;24.90;20.43;101079.72;4975276;28;20038;-96
2022/04/21 12:14:29;;;;;;;4.15;2.40;;;;;;;24.96;19.24;101075.59;4972932;28;20081;-92
2022/04/21 12:16:59;;;;;;;6.68;2.72;;;;;;;24.87;20.86;101072.78;4974893;28;20030;-94
2022/04/21 12:19:42;;;;;;;2.50;2.28;;;;;;;25.29;20.12;101066.91;4974171;28;20031;-92